Time;durP1;ratioP1;P1;durP2;ratioP2;P2;SDS_P1;SDS_P2;PMS_P1;PMS_P2;Temp;Humidity;BMP_temperature;BMP_pressure;BME280_temperature;BME280_humidity;BME280_pressure;Samples;Min_cycle;Max_cycle;Signal;HPM_P1;HPM_P2
2022/03/23 00:00:46;;;;;;;4.33;1.90;;;;;;;9.97;32.27;95670.75;5059884;28;20185;-74
2022/03/23 00:03:13;;;;;;;2.77;1.60;;;;;;;10.26;31.57;95672.06;5050455;28;20171;-74
2022/03/23 00:05:41;;;;;;;4.03;1.90;;;;;;;10.35;31.02;95675.47;5040373;28;20176;-74
2022/03/23 00:08:07;;;;;;;2.90;1.33;;;;;;;9.94;32.20;95678.09;5061434;28;20418;-74
2022/03/23 00:10:34;;;;;;;2.77;1.20;;;;;;;9.99;32.24;95670.59;5060614;28;20432;-74
2022/03/23 00:13:00;;;;;;;7.90;2.13;;;;;;;10.03;31.23;95671.09;5059204;28;20940;-74
2022/03/23 00:15:27;;;;;;;3.13;2.30;;;;;;;9.74;31.55;95677.63;5054326;28;20445;-75
2022/03/23 00:17:53;;;;;;;1.80;1.47;;;;;;;10.06;31.23;95676.00;5056757;28;20457;-74
2022/03/23 00:20:19;;;;;;;6.20;1.83;;;;;;;10.33;31.18;95670.41;5061370;28;20453;-74
2022/03/23 00:22:45;;;;;;;2.30;2.10;;;;;;;10.19;30.83;95665.00;5060299;28;20916;-74
2022/03/23 00:25:11;;;;;;;2.80;2.07;;;;;;;10.27;31.34;95672.84;5057713;28;20171;-74
2022/03/23 00:27:37;;;;;;;9.73;2.57;;;;;;;9.81;32.61;95675.16;5058908;28;20167;-74
2022/03/23 00:30:04;;;;;;;2.40;2.17;;;;;;;9.73;33.16;95670.75;5062102;28;20428;-74
2022/03/23 00:32:29;;;;;;;5.90;2.33;;;;;;;9.18;33.55;95674.78;5057046;28;20431;-74
2022/03/23 00:34:55;;;;;;;2.70;2.03;;;;;;;9.38;33.25;95670.91;5054349;28;20428;-74
2022/03/23 00:37:20;;;;;;;2.73;2.00;;;;;;;9.29;33.73;95671.06;5082843;28;20194;-74
2022/03/23 00:39:46;;;;;;;5.77;2.10;;;;;;;9.34;33.60;95666.19;5060326;28;20216;-74
2022/03/23 00:42:12;;;;;;;3.90;2.00;;;;;;;9.15;33.92;95670.69;5062261;28;20170;-74
2022/03/23 00:44:37;;;;;;;4.07;2.30;;;;;;;8.89;34.61;95667.38;5060981;28;20520;-74
2022/03/23 00:47:05;;;;;;;5.73;2.90;;;;;;;9.58;33.02;95670.63;5056253;28;20604;-74
2022/03/23 00:49:30;;;;;;;3.13;2.40;;;;;;;9.45;33.01;95665.06;5061665;28;20745;-74
2022/03/23 00:51:56;;;;;;;3.40;2.60;;;;;;;9.33;32.57;95677.59;5064655;28;20457;-74
2022/03/23 00:54:22;;;;;;;6.93;2.77;;;;;;;9.44;32.88;95668.63;5064697;28;20204;-74
2022/03/23 00:56:50;;;;;;;5.13;2.87;;;;;;;9.71;32.47;95670.09;5063644;28;20213;-74
2022/03/23 00:59:17;;;;;;;2.87;2.50;;;;;;;9.53;32.89;95671.09;5061336;28;20425;-74
2022/03/23 01:01:45;;;;;;;4.53;2.20;;;;;;;9.25;33.29;95673.16;5062904;28;20489;-74
2022/03/23 01:04:11;;;;;;;4.83;2.07;;;;;;;9.44;32.75;95666.81;5060642;28;20421;-74
2022/03/23 01:06:37;;;;;;;4.17;2.10;;;;;;;9.55;32.21;95668.31;5058697;28;20445;-74
2022/03/23 01:09:03;;;;;;;3.10;2.10;;;;;;;9.18;32.99;95667.78;5058910;28;20538;-74
2022/03/23 01:11:28;;;;;;;7.83;2.13;;;;;;;9.36;32.82;95665.03;5049055;28;20182;-74
2022/03/23 01:13:54;;;;;;;2.97;2.23;;;;;;;9.54;32.38;95664.91;5057496;28;20178;-74
2022/03/23 01:16:19;;;;;;;7.40;2.40;;;;;;;9.55;32.34;95671.75;5059070;28;20206;-74
2022/03/23 01:18:45;;;;;;;2.23;1.87;;;;;;;9.60;32.32;95667.81;5061187;28;20207;-74
2022/03/23 01:21:13;;;;;;;3.90;1.93;;;;;;;9.30;32.22;95664.88;5059197;28;20234;-74
2022/03/23 01:23:39;;;;;;;3.07;2.10;;;;;;;8.99;32.73;95668.03;5063775;28;20534;-74
2022/03/23 01:26:05;;;;;;;1.60;1.50;;;;;;;9.17;32.60;95665.31;5054056;28;20453;-74
2022/03/23 01:28:31;;;;;;;3.10;1.80;;;;;;;9.29;32.55;95650.16;5061353;28;20409;-74
2022/03/23 01:30:57;;;;;;;2.70;2.30;;;;;;;8.69;32.68;95638.09;5052964;28;20186;-74
2022/03/23 01:33:22;;;;;;;6.37;2.70;;;;;;;8.14;34.01;95649.72;5063923;28;20179;-74
2022/03/23 01:35:48;;;;;;;10.60;1.90;;;;;;;8.99;32.73;95647.16;5060446;28;20187;-74
2022/03/23 01:38:14;;;;;;;2.90;1.90;;;;;;;9.40;32.37;95647.22;5064821;28;20561;-74
2022/03/23 01:40:39;;;;;;;5.47;2.00;;;;;;;9.25;31.89;95638.41;5067962;28;20429;-74
2022/03/23 01:43:05;;;;;;;6.80;1.80;;;;;;;9.06;32.13;95642.94;5062412;28;20179;-74
2022/03/23 01:45:30;;;;;;;4.70;1.47;;;;;;;8.83;32.22;95642.72;5067621;28;20178;-74
2022/03/23 01:47:56;;;;;;;2.07;1.87;;;;;;;9.06;32.38;95642.94;5059143;28;20183;-74
2022/03/23 01:50:21;;;;;;;2.33;1.20;;;;;;;9.15;32.49;95641.97;5061970;28;20198;-74
2022/03/23 01:52:48;;;;;;;1.83;1.60;;;;;;;8.82;32.57;95642.88;5064488;28;20302;-74
2022/03/23 01:55:14;;;;;;;3.90;1.97;;;;;;;9.01;32.17;95644.38;5067616;28;20255;-75
2022/03/23 01:57:44;;;;;;;2.03;1.57;;;;;;;9.17;32.02;95640.03;5064643;28;20996;-74
2022/03/23 02:00:11;;;;;;;3.67;1.90;;;;;;;9.28;31.44;95640.69;5059301;28;20432;-74
2022/03/23 02:02:36;;;;;;;3.20;1.60;;;;;;;9.56;31.59;95639.41;5063786;28;20418;-75
2022/03/23 02:05:03;;;;;;;4.03;1.80;;;;;;;9.21;32.08;95642.31;5096190;28;20478;-74
2022/03/23 02:07:30;;;;;;;3.20;1.50;;;;;;;9.11;32.59;95645.88;5059620;28;20171;-74
2022/03/23 02:09:55;;;;;;;3.57;1.40;;;;;;;9.12;31.97;95642.28;5063327;28;20501;-74
2022/03/23 02:12:21;;;;;;;2.40;1.60;;;;;;;9.22;32.62;95636.94;5056738;28;20486;-74
2022/03/23 02:14:48;;;;;;;3.77;1.70;;;;;;;9.47;32.28;95640.38;5049906;28;20179;-74
2022/03/23 02:17:13;;;;;;;2.70;1.40;;;;;;;9.36;31.77;95640.69;5058197;28;20198;-74
2022/03/23 02:19:38;;;;;;;5.00;2.30;;;;;;;9.74;31.11;95641.84;5060921;28;20828;-74
2022/03/23 02:22:04;;;;;;;3.77;2.20;;;;;;;9.56;31.84;95644.66;5049160;28;20175;-74
2022/03/23 02:24:31;;;;;;;1.57;1.47;;;;;;;9.68;32.47;95639.09;5060850;28;20312;-74
2022/03/23 02:26:57;;;;;;;1.70;1.60;;;;;;;9.31;32.64;95635.94;5067455;28;20167;-74
2022/03/23 02:29:25;;;;;;;3.40;1.70;;;;;;;9.33;32.28;95638.41;5067372;28;20960;-74
2022/03/23 02:31:51;;;;;;;5.07;1.93;;;;;;;9.15;32.64;95635.94;5061167;28;20414;-74
2022/03/23 02:34:17;;;;;;;5.13;1.80;;;;;;;9.26;32.69;95642.63;5053722;28;20437;-74
2022/03/23 02:36:43;;;;;;;2.70;1.60;;;;;;;9.14;33.22;95648.19;5062695;28;20170;-74
2022/03/23 02:39:09;;;;;;;3.57;2.13;;;;;;;9.30;32.94;95638.75;5057651;28;20421;-75
2022/03/23 02:41:34;;;;;;;4.30;2.03;;;;;;;8.88;33.72;95648.28;5066811;28;20428;-74
2022/03/23 02:44:00;;;;;;;3.17;2.17;;;;;;;9.17;33.38;95639.22;5046043;28;20671;-74
2022/03/23 02:46:26;;;;;;;4.73;2.23;;;;;;;8.83;32.95;95641.91;5054226;28;20186;-74
2022/03/23 02:48:51;;;;;;;8.33;2.80;;;;;;;8.63;34.10;95644.75;5056342;28;20166;-74
2022/03/23 02:51:17;;;;;;;2.87;2.20;;;;;;;8.66;33.43;95644.44;5064753;28;20480;-74
2022/03/23 03:02:40;;;;;;;6.13;3.10;;;;;;;8.05;35.00;95653.25;5043465;28;20443;-74
2022/03/23 03:05:08;;;;;;;2.33;2.13;;;;;;;8.57;34.23;95655.81;5065839;28;20456;-74
2022/03/23 03:10:21;;;;;;;4.63;2.60;;;;;;;8.81;33.64;95651.69;5055994;28;20476;-74
2022/03/23 03:12:47;;;;;;;5.93;2.17;;;;;;;8.32;35.48;95660.06;5056875;28;20410;-74
2022/03/23 03:15:14;;;;;;;2.73;2.30;;;;;;;8.42;35.18;95654.78;5053354;28;20517;-75
2022/03/23 03:17:41;;;;;;;2.33;2.13;;;;;;;8.36;35.37;95646.56;5057286;28;20454;-74
2022/03/23 03:20:07;;;;;;;2.83;2.00;;;;;;;8.36;35.26;95657.00;5066364;28;20456;-74
2022/03/23 03:22:40;;;;;;;2.30;2.10;;;;;;;7.94;35.65;95649.91;5058191;28;20421;-74
2022/03/23 03:25:07;;;;;;;3.73;2.67;;;;;;;8.45;34.98;95650.06;5065600;28;20429;-74
2022/03/23 03:27:35;;;;;;;5.67;2.63;;;;;;;8.67;34.75;95651.31;5057763;28;20413;-74
2022/03/23 03:30:07;;;;;;;4.67;2.70;;;;;;;8.20;36.63;95656.91;5046068;28;20433;-74
2022/03/23 03:32:34;;;;;;;3.47;2.37;;;;;;;8.28;36.57;95654.34;5045885;28;20825;-74
2022/03/23 03:35:00;;;;;;;3.80;2.60;;;;;;;8.37;36.25;95648.22;5044805;28;20925;-74
2022/03/23 03:37:26;;;;;;;3.70;2.40;;;;;;;8.45;36.39;95637.03;5045721;28;20462;-74
2022/03/23 03:39:51;;;;;;;3.70;2.80;;;;;;;8.19;37.07;95644.84;5044480;28;20432;-74
2022/03/23 03:42:18;;;;;;;4.63;2.40;;;;;;;8.04;37.55;95649.00;5051970;28;20164;-74
2022/03/23 03:44:44;;;;;;;2.53;2.33;;;;;;;7.87;37.81;95648.88;5044330;28;20178;-74
2022/03/23 03:47:10;;;;;;;5.83;2.33;;;;;;;7.96;37.35;95650.56;5045475;28;20441;-74
2022/03/23 03:49:37;;;;;;;2.23;1.70;;;;;;;8.19;37.38;95643.06;5045450;28;20426;-74
2022/03/23 03:52:04;;;;;;;3.17;2.47;;;;;;;7.84;38.55;95646.59;5044245;28;21073;-74
2022/03/23 03:54:29;;;;;;;6.70;3.47;;;;;;;7.99;38.23;95652.88;5045703;28;20463;-73
2022/03/23 03:56:54;;;;;;;2.40;2.20;;;;;;;7.98;38.76;95659.03;5045132;28;20414;-73
2022/03/23 03:59:20;;;;;;;2.53;2.33;;;;;;;8.09;37.88;95651.97;5054981;28;20182;-74
2022/03/23 04:01:46;;;;;;;8.03;2.90;;;;;;;7.87;39.10;95656.69;5063035;28;20190;-74
2022/03/23 04:04:11;;;;;;;2.10;1.90;;;;;;;7.59;39.82;95658.63;5045464;28;20218;-74
2022/03/23 04:06:37;;;;;;;3.67;2.37;;;;;;;8.11;38.09;95663.06;5063371;28;20174;-73
2022/03/23 04:09:03;;;;;;;3.07;2.73;;;;;;;8.05;38.26;95658.47;5048282;28;20179;-74
2022/03/23 04:11:30;;;;;;;3.27;2.97;;;;;;;8.07;38.30;95666.94;5056732;28;20194;-74
2022/03/23 04:13:55;;;;;;;5.40;2.60;;;;;;;8.11;37.90;95663.88;5050357;28;20174;-74
2022/03/23 04:16:21;;;;;;;3.80;3.03;;;;;;;7.71;38.99;95667.00;5065192;28;20429;-74
2022/03/23 04:18:47;;;;;;;3.33;2.43;;;;;;;7.83;38.92;95665.78;5055538;28;20193;-74
2022/03/23 04:21:13;;;;;;;3.60;2.33;;;;;;;7.60;39.67;95670.66;5050545;28;20445;-74
2022/03/23 04:23:40;;;;;;;3.60;2.77;;;;;;;7.87;38.83;95669.72;5052813;28;20497;-74
2022/03/23 04:26:05;;;;;;;2.97;2.37;;;;;;;7.59;39.24;95664.63;5056161;28;20257;-74
2022/03/23 04:28:31;;;;;;;3.70;2.80;;;;;;;7.48;40.22;95667.47;5059505;28;20413;-74
2022/03/23 04:30:57;;;;;;;2.73;2.30;;;;;;;7.74;39.51;95664.09;5050854;28;20183;-74
2022/03/23 04:33:22;;;;;;;4.07;2.33;;;;;;;7.29;40.18;95667.63;5058511;28;20420;-74
2022/03/23 04:35:48;;;;;;;2.80;2.30;;;;;;;7.85;39.72;95666.44;5057775;28;20210;-74
2022/03/23 04:38:13;;;;;;;4.03;2.40;;;;;;;7.68;39.80;95662.09;5053400;28;20203;-74
2022/03/23 04:40:39;;;;;;;6.70;2.50;;;;;;;7.91;39.69;95668.47;5064277;28;20197;-74
2022/03/23 04:43:04;;;;;;;10.13;3.93;;;;;;;7.79;39.67;95667.88;5061520;28;20216;-74
2022/03/23 04:45:30;;;;;;;4.13;2.73;;;;;;;7.89;39.48;95675.63;5064189;28;20217;-80
2022/03/23 04:47:56;;;;;;;8.90;3.10;;;;;;;7.69;39.85;95669.75;5056437;28;20198;-81
2022/03/23 04:50:21;;;;;;;7.07;2.97;;;;;;;7.43;40.72;95669.69;5063009;28;20178;-80
2022/03/23 04:52:48;;;;;;;10.37;2.37;;;;;;;7.84;40.55;95670.03;5047376;28;20219;-80
2022/03/23 04:55:15;;;;;;;4.67;3.37;;;;;;;7.98;39.39;95663.44;5047542;28;20187;-80
2022/03/23 04:57:42;;;;;;;3.53;3.20;;;;;;;8.09;39.80;95667.59;5046967;28;20453;-80
2022/03/23 05:00:10;;;;;;;5.83;3.00;;;;;;;8.15;39.29;95673.00;5046696;28;20526;-80
2022/03/23 05:02:38;;;;;;;7.97;3.67;;;;;;;8.25;39.13;95665.06;5045156;28;20489;-79
2022/03/23 05:05:09;;;;;;;13.40;4.80;;;;;;;8.08;40.25;95663.34;5046652;28;20421;-80
2022/03/23 05:07:35;;;;;;;6.47;4.30;;;;;;;7.97;40.09;95665.25;5054824;28;20417;-80
2022/03/23 05:10:02;;;;;;;8.50;4.60;;;;;;;8.40;39.33;95668.78;5067389;28;20456;-80
2022/03/23 05:12:28;;;;;;;8.07;3.83;;;;;;;8.30;39.80;95668.03;5059153;28;20431;-80
2022/03/23 05:14:54;;;;;;;8.63;5.80;;;;;;;8.29;40.14;95674.25;5071234;28;20421;-79
2022/03/23 05:17:20;;;;;;;8.57;4.40;;;;;;;8.48;39.43;95675.00;5065156;28;20205;-79
2022/03/23 05:19:45;;;;;;;8.00;4.97;;;;;;;8.43;40.09;95667.66;5049963;28;20433;-80
2022/03/23 05:22:12;;;;;;;7.93;5.17;;;;;;;8.00;40.75;95680.56;5049935;28;20413;-80
2022/03/23 05:24:39;;;;;;;8.23;4.10;;;;;;;8.23;40.24;95682.66;5054656;28;20171;-79
2022/03/23 05:27:06;;;;;;;5.03;3.37;;;;;;;8.60;39.97;95677.19;5064678;28;20413;-80
2022/03/23 05:29:32;;;;;;;6.10;4.13;;;;;;;8.20;40.50;95683.00;5063210;28;20799;-81
2022/03/23 05:31:57;;;;;;;11.47;4.87;;;;;;;8.12;40.35;95677.72;5050019;28;20412;-80
2022/03/23 05:34:23;;;;;;;5.90;3.97;;;;;;;8.26;40.43;95682.38;5065809;28;20417;-80
2022/03/23 05:36:48;;;;;;;12.70;4.67;;;;;;;7.97;41.03;95685.28;5060449;28;20244;-81
2022/03/23 05:39:14;;;;;;;7.20;4.00;;;;;;;8.46;39.74;95684.78;5064926;28;20650;-81
2022/03/23 05:41:39;;;;;;;6.20;4.23;;;;;;;8.62;39.76;95682.25;5057667;28;20219;-80
2022/03/23 05:44:05;;;;;;;8.97;4.67;;;;;;;8.53;39.83;95677.97;5051728;28;20179;-81
2022/03/23 05:46:31;;;;;;;6.00;4.50;;;;;;;8.67;39.29;95682.63;5070197;28;20192;-81
2022/03/23 05:48:56;;;;;;;6.07;3.80;;;;;;;8.89;39.62;95683.03;5063253;28;20177;-81
2022/03/23 05:51:23;;;;;;;4.90;3.83;;;;;;;9.10;38.79;95685.22;5050974;28;20260;-81
2022/03/23 05:53:49;;;;;;;9.97;4.33;;;;;;;9.10;38.37;95686.03;5066723;28;20166;-81
2022/03/23 05:56:15;;;;;;;6.90;4.20;;;;;;;8.97;39.00;95681.28;5069160;28;20431;-81
2022/03/23 05:58:41;;;;;;;7.33;3.67;;;;;;;9.11;39.79;95687.66;5054332;28;20512;-81
2022/03/23 06:01:06;;;;;;;4.07;3.23;;;;;;;9.50;38.26;95687.06;5062190;28;20441;-81
2022/03/23 06:03:32;;;;;;;7.20;3.77;;;;;;;8.94;39.94;95688.59;5069211;28;20250;-80
2022/03/23 06:05:58;;;;;;;8.17;3.60;;;;;;;9.08;39.70;95685.38;5065322;28;20213;-80
2022/03/23 06:08:24;;;;;;;5.97;3.33;;;;;;;8.85;39.37;95692.16;5060921;28;20425;-81
2022/03/23 06:10:49;;;;;;;4.80;3.10;;;;;;;9.01;39.26;95691.38;5048068;28;20993;-80
2022/03/23 06:13:15;;;;;;;17.47;4.57;;;;;;;9.04;39.94;95691.88;5051444;28;20191;-80
2022/03/23 06:15:41;;;;;;;9.60;3.77;;;;;;;9.24;39.46;95694.22;5058764;28;20178;-79
2022/03/23 06:18:07;;;;;;;7.27;4.50;;;;;;;9.49;39.71;95693.28;5054286;28;20507;-81
2022/03/23 06:20:32;;;;;;;5.83;3.27;;;;;;;9.19;39.96;95695.50;5058315;28;20202;-81
2022/03/23 06:22:58;;;;;;;4.87;3.60;;;;;;;9.19;40.27;95690.28;5059431;28;20242;-81
2022/03/23 06:25:26;;;;;;;6.10;3.80;;;;;;;9.21;41.18;95690.13;5064243;28;20197;-80
2022/03/23 06:27:52;;;;;;;5.90;3.30;;;;;;;8.97;41.52;95685.66;5053318;28;20176;-81
2022/03/23 06:30:17;;;;;;;6.50;3.63;;;;;;;9.18;40.59;95686.06;5048117;28;20448;-81
2022/03/23 06:32:43;;;;;;;6.70;4.47;;;;;;;9.47;40.05;95702.28;5048500;28;20450;-80
2022/03/23 06:35:08;;;;;;;19.33;4.30;;;;;;;9.24;40.78;95689.81;5068089;28;20201;-80
2022/03/23 06:37:34;;;;;;;5.67;5.03;;;;;;;9.44;41.10;95697.38;5054722;28;20199;-80
2022/03/23 06:40:01;;;;;;;6.20;4.13;;;;;;;9.27;41.77;95699.13;5047558;28;20425;-81
2022/03/23 06:42:27;;;;;;;4.73;4.13;;;;;;;9.23;40.67;95695.22;5052922;28;20421;-81
2022/03/23 06:44:53;;;;;;;4.40;3.97;;;;;;;9.04;42.21;95686.66;5053227;28;20440;-80
2022/03/23 06:47:19;;;;;;;4.80;4.00;;;;;;;9.53;40.71;95697.22;5054112;28;20440;-80
2022/03/23 06:49:45;;;;;;;6.13;4.70;;;;;;;9.66;41.31;95696.75;5056887;28;20440;-80
2022/03/23 06:52:10;;;;;;;6.97;5.00;;;;;;;9.79;40.18;95701.50;5046008;28;20247;-81
2022/03/23 06:54:36;;;;;;;4.87;4.40;;;;;;;9.76;40.66;95704.44;5038977;28;20180;-81
2022/03/23 06:57:02;;;;;;;6.10;4.73;;;;;;;9.88;40.94;95710.97;5027962;28;20175;-81
2022/03/23 06:59:27;;;;;;;5.60;4.60;;;;;;;10.24;40.15;95713.22;5010271;28;20184;-81
2022/03/23 07:01:52;;;;;;;10.60;4.40;;;;;;;9.35;41.48;95714.81;5040294;28;20183;-82
2022/03/23 07:04:18;;;;;;;4.03;3.27;;;;;;;9.84;40.37;95709.66;5040737;28;20180;-82
2022/03/23 07:06:43;;;;;;;7.33;3.70;;;;;;;10.02;39.78;95709.50;5021001;28;20213;-81
2022/03/23 07:11:53;;;;;;;3.93;3.60;;;;;;;10.66;38.98;95708.75;5033678;28;20194;-81
2022/03/23 07:14:19;;;;;;;7.70;4.27;;;;;;;9.99;39.93;95717.66;5042255;28;20438;-81
2022/03/23 07:16:44;;;;;;;7.47;3.87;;;;;;;10.23;39.92;95722.06;5027869;28;20442;-81
2022/03/23 07:19:10;;;;;;;9.30;4.10;;;;;;;10.05;40.27;95716.19;5030340;28;20206;-81
2022/03/23 07:21:36;;;;;;;6.23;3.27;;;;;;;10.02;40.41;95721.78;5034740;28;20195;-81
2022/03/23 07:24:01;;;;;;;4.70;3.20;;;;;;;10.33;39.56;95712.28;5026937;28;20235;-81
2022/03/23 07:26:27;;;;;;;6.03;3.90;;;;;;;10.19;39.25;95720.78;5009594;28;20188;-81
2022/03/23 07:28:52;;;;;;;4.57;2.50;;;;;;;10.33;38.10;95714.88;5009355;28;20184;-81
2022/03/23 07:31:18;;;;;;;7.10;3.30;;;;;;;10.55;38.68;95723.03;5036100;28;20194;-82
2022/03/23 07:33:44;;;;;;;5.43;3.70;;;;;;;10.52;38.35;95716.31;5031611;28;20191;-81
2022/03/23 07:36:12;;;;;;;6.03;3.90;;;;;;;10.04;39.27;95714.56;5011417;28;20586;-82
2022/03/23 07:38:40;;;;;;;6.87;4.57;;;;;;;10.48;38.49;95716.84;5028434;28;20353;-81
2022/03/23 07:41:06;;;;;;;6.83;3.27;;;;;;;10.69;38.32;95714.47;5034391;28;20441;-81
2022/03/23 07:43:32;;;;;;;4.23;3.83;;;;;;;10.33;39.10;95720.13;5006987;28;20428;-81
2022/03/23 07:45:58;;;;;;;7.80;4.30;;;;;;;10.58;38.71;95727.94;5031106;28;20262;-81
2022/03/23 07:48:24;;;;;;;14.20;4.83;;;;;;;10.90;37.59;95726.19;5039058;28;20171;-81
2022/03/23 07:50:50;;;;;;;4.83;4.00;;;;;;;10.59;38.25;95723.53;5044578;28;20432;-81
2022/03/23 07:53:16;;;;;;;9.77;3.50;;;;;;;10.90;37.97;95721.78;5052033;28;20429;-80
2022/03/23 07:55:42;;;;;;;4.50;3.10;;;;;;;11.29;37.18;95717.53;5053060;28;20443;-82
2022/03/23 07:58:08;;;;;;;9.93;3.73;;;;;;;11.60;35.80;95722.75;5059936;28;20463;-81
2022/03/23 08:00:33;;;;;;;5.80;3.37;;;;;;;11.05;36.66;95714.03;5055562;28;20186;-81
2022/03/23 08:02:59;;;;;;;5.10;3.10;;;;;;;11.46;36.45;95726.94;5046208;28;20174;-81
2022/03/23 08:05:25;;;;;;;5.33;3.47;;;;;;;11.71;35.68;95713.66;5057675;28;20211;-81
2022/03/23 08:07:51;;;;;;;5.80;5.20;;;;;;;10.86;37.12;95714.44;5034111;28;20237;-80
2022/03/23 08:10:16;;;;;;;6.90;4.57;;;;;;;11.49;35.83;95720.53;5043033;28;20179;-81
2022/03/23 08:12:42;;;;;;;8.80;3.23;;;;;;;12.03;34.59;95711.84;5047385;28;20428;-81
2022/03/23 08:15:09;;;;;;;6.30;3.30;;;;;;;10.94;35.92;95712.59;5046855;28;20194;-81
2022/03/23 08:17:38;;;;;;;9.13;3.70;;;;;;;12.14;35.34;95714.03;5058209;28;20201;-81
2022/03/23 08:22:53;;;;;;;8.67;3.90;;;;;;;12.46;35.15;95701.59;5053697;28;20397;-81
2022/03/23 08:25:19;;;;;;;4.83;3.20;;;;;;;11.49;35.66;95702.16;5053326;28;20801;-81
2022/03/23 08:27:44;;;;;;;7.30;3.20;;;;;;;10.82;36.76;95703.47;5051646;28;20174;-82
2022/03/23 08:30:10;;;;;;;7.60;3.50;;;;;;;12.17;34.42;95700.53;5060681;28;20179;-81
2022/03/23 08:32:36;;;;;;;5.33;3.20;;;;;;;11.68;35.38;95703.53;5049377;28;20193;-81
2022/03/23 08:35:01;;;;;;;8.87;3.80;;;;;;;12.42;33.66;95706.38;5054298;28;20429;-81
2022/03/23 08:37:28;;;;;;;4.60;3.20;;;;;;;12.08;34.07;95714.72;5057660;28;20203;-80
2022/03/23 08:39:53;;;;;;;6.93;3.67;;;;;;;12.43;33.56;95696.72;5057917;28;20273;-81
2022/03/23 08:42:19;;;;;;;8.90;3.33;;;;;;;10.84;35.94;95708.56;5059581;28;20413;-81
2022/03/23 08:44:45;;;;;;;5.37;3.10;;;;;;;11.11;35.68;95717.78;5052057;28;20182;-81
2022/03/23 08:47:12;;;;;;;4.27;2.90;;;;;;;11.57;35.38;95717.03;5054998;28;20183;-81
2022/03/23 08:49:37;;;;;;;5.73;4.00;;;;;;;12.08;34.61;95710.31;5052591;28;20486;-81
2022/03/23 08:52:04;;;;;;;11.83;4.33;;;;;;;11.56;35.35;95712.78;5036700;28;20926;-81
2022/03/23 08:54:29;;;;;;;12.73;4.63;;;;;;;11.48;35.17;95703.97;5039776;28;20198;-81
2022/03/23 08:56:55;;;;;;;9.33;5.13;;;;;;;11.22;36.01;95708.72;5057578;28;20605;-81
2022/03/23 08:59:20;;;;;;;6.40;4.23;;;;;;;10.98;34.96;95713.06;5029743;28;20217;-81
2022/03/23 09:01:46;;;;;;;7.77;4.57;;;;;;;11.24;35.29;95709.38;5047164;28;20215;-81
2022/03/23 09:04:11;;;;;;;6.43;4.03;;;;;;;11.30;34.87;95708.66;5052916;28;20175;-81
2022/03/23 09:06:37;;;;;;;9.00;4.57;;;;;;;11.85;34.44;95707.66;5048890;28;20183;-82
2022/03/23 09:09:02;;;;;;;4.83;3.80;;;;;;;12.57;32.63;95703.75;5032138;28;20252;-82
2022/03/23 09:11:28;;;;;;;3.77;3.47;;;;;;;12.14;33.41;95703.53;5063042;28;20251;-83
2022/03/23 09:13:54;;;;;;;6.97;4.27;;;;;;;12.15;33.44;95699.09;5063819;28;20265;-83
2022/03/23 09:16:19;;;;;;;7.93;3.60;;;;;;;13.02;32.32;95694.06;5066566;28;20182;-82
2022/03/23 09:18:44;;;;;;;17.70;4.23;;;;;;;13.69;31.51;95702.72;5049235;28;20381;-82
2022/03/23 09:21:10;;;;;;;4.93;4.40;;;;;;;12.87;31.89;95699.34;5031193;28;20241;-81
2022/03/23 09:23:38;;;;;;;6.63;5.10;;;;;;;13.39;32.02;95694.94;5055135;28;20206;-82
2022/03/23 09:26:04;;;;;;;6.10;4.03;;;;;;;13.41;31.43;95694.75;5046057;28;20175;-81
2022/03/23 09:28:29;;;;;;;6.20;3.90;;;;;;;13.20;32.13;95696.31;5048225;28;20447;-81
2022/03/23 09:30:55;;;;;;;5.13;3.23;;;;;;;13.26;31.90;95692.13;5058300;28;20210;-80
2022/03/23 09:33:21;;;;;;;4.30;3.80;;;;;;;12.53;32.10;95689.38;5045699;28;20179;-81
2022/03/23 09:35:46;;;;;;;6.90;3.37;;;;;;;13.29;31.14;95687.31;5041546;28;20188;-82
2022/03/23 09:38:13;;;;;;;6.20;4.47;;;;;;;14.11;30.40;95681.84;5057418;28;20194;-81
2022/03/23 09:40:39;;;;;;;8.70;4.43;;;;;;;14.04;30.66;95685.25;5061881;28;20242;-81
2022/03/23 09:43:15;;;;;;;6.43;4.23;;;;;;;15.15;29.39;95683.72;5046074;28;20417;-81
2022/03/23 09:48:11;;;;;;;6.97;3.27;;;;;;;13.24;30.54;95673.09;5045456;28;20477;-81
2022/03/23 09:50:40;;;;;;;3.27;2.97;;;;;;;14.56;29.72;95677.91;5050796;28;20511;-81
2022/03/23 09:53:06;;;;;;;10.60;3.83;;;;;;;14.54;29.22;95671.22;5035314;28;20470;-81
2022/03/23 09:55:32;;;;;;;8.17;4.50;;;;;;;14.55;28.99;95675.47;5063988;28;20433;-81
2022/03/23 09:58:01;;;;;;;6.10;4.30;;;;;;;14.49;29.38;95671.78;5053751;28;20469;-80
2022/03/23 10:00:32;;;;;;;7.70;4.40;;;;;;;14.01;29.64;95669.00;5050392;28;20445;-81
2022/03/23 10:02:58;;;;;;;11.63;4.00;;;;;;;14.89;28.87;95666.78;5058441;28;20409;-81
2022/03/23 10:06:01;;;;;;;7.90;4.40;;;;;;;15.01;28.96;95669.69;5061275;28;20512;-81
2022/03/23 10:08:59;;;;;;;8.27;4.50;;;;;;;15.17;28.12;95657.97;5047921;28;20564;-81
2022/03/23 10:12:11;;;;;;;9.03;4.50;;;;;;;14.89;28.19;95652.78;5047219;28;20452;-81
2022/03/23 10:15:17;;;;;;;13.00;3.73;;;;;;;14.68;28.37;95643.16;5020288;28;20452;-81
2022/03/23 10:18:01;;;;;;;6.30;3.40;;;;;;;15.55;26.37;95633.72;5052486;28;20459;-81
2022/03/23 10:20:26;;;;;;;4.80;3.40;;;;;;;15.88;26.37;95646.16;5029223;28;20572;-81
2022/03/23 10:22:53;;;;;;;5.77;3.40;;;;;;;15.22;27.04;95645.00;5057567;28;20534;-81
2022/03/23 10:25:21;;;;;;;6.70;4.10;;;;;;;15.12;26.53;95639.28;5060429;28;20186;-80
2022/03/23 10:27:47;;;;;;;7.23;3.83;;;;;;;15.41;25.95;95643.44;5055911;28;20418;-80
2022/03/23 10:30:15;;;;;;;8.63;3.87;;;;;;;15.91;25.52;95637.84;5050929;28;20483;-80
2022/03/23 10:32:44;;;;;;;11.57;3.17;;;;;;;15.43;25.79;95639.56;5051618;28;20432;-81
2022/03/23 10:35:14;;;;;;;7.43;3.00;;;;;;;14.67;27.20;95634.44;5043551;28;20442;-81
2022/03/23 10:37:41;;;;;;;5.23;3.63;;;;;;;14.69;27.11;95639.53;5051662;28;20446;-81
2022/03/23 10:40:18;;;;;;;5.10;2.83;;;;;;;14.62;26.34;95640.28;5051022;28;20449;-81
2022/03/23 10:42:45;;;;;;;10.77;3.30;;;;;;;15.41;27.07;95638.16;5041378;28;20425;-80
2022/03/23 10:45:20;;;;;;;6.87;4.27;;;;;;;15.19;27.40;95626.94;5056399;28;20455;-81
2022/03/23 10:47:47;;;;;;;6.00;4.27;;;;;;;16.16;25.72;95624.81;5044847;28;20482;-81
2022/03/23 10:50:18;;;;;;;13.43;4.10;;;;;;;15.59;25.43;95629.66;5059432;28;20441;-81
2022/03/23 10:52:49;;;;;;;4.73;3.67;;;;;;;14.53;26.78;95625.63;5054886;28;20472;-81
2022/03/23 10:55:16;;;;;;;11.63;4.00;;;;;;;15.13;26.90;95630.38;5033869;28;20460;-81
2022/03/23 10:57:51;;;;;;;4.30;3.40;;;;;;;15.05;27.11;95617.38;5057250;28;20465;-81
2022/03/23 11:00:25;;;;;;;8.97;3.87;;;;;;;15.16;27.43;95612.34;5038477;28;20436;-80
2022/03/23 11:02:51;;;;;;;4.27;3.53;;;;;;;15.78;25.81;95612.25;5054702;28;20951;-81
2022/03/23 11:05:42;;;;;;;11.03;3.37;;;;;;;15.76;26.77;95620.38;5047063;28;20421;-81
2022/03/23 11:08:14;;;;;;;4.20;3.03;;;;;;;15.67;26.00;95605.72;5040427;28;20180;-81
2022/03/23 11:16:47;;;;;;;5.63;3.60;;;;;;;16.25;25.23;95589.25;5052079;28;20614;-81
2022/03/23 11:19:13;;;;;;;5.93;3.80;;;;;;;16.54;24.84;95595.09;5047911;28;20489;-82
2022/03/23 11:21:58;;;;;;;7.37;4.00;;;;;;;15.71;25.34;95585.03;5065468;28;20417;-81
2022/03/23 11:24:28;;;;;;;6.43;3.70;;;;;;;15.51;26.11;95590.28;5057035;28;20875;-81
2022/03/23 11:26:55;;;;;;;7.53;3.77;;;;;;;16.56;25.19;95577.19;5051494;28;20474;-82
2022/03/23 11:29:21;;;;;;;5.10;4.17;;;;;;;16.91;24.16;95584.81;5049780;28;20497;-82
2022/03/23 11:31:47;;;;;;;5.53;3.40;;;;;;;16.52;24.41;95568.88;5065398;28;20429;-81
2022/03/23 11:34:17;;;;;;;4.83;3.10;;;;;;;16.21;25.27;95564.28;5047799;28;20179;-81
2022/03/23 11:36:43;;;;;;;11.33;4.10;;;;;;;16.35;24.78;95565.06;5036631;28;20426;-81
2022/03/23 11:39:11;;;;;;;7.60;3.87;;;;;;;16.74;24.70;95573.88;5047435;28;20465;-81
2022/03/23 11:41:38;;;;;;;4.70;3.23;;;;;;;16.13;25.19;95578.53;5042747;28;20429;-82
2022/03/23 11:44:03;;;;;;;6.50;3.80;;;;;;;16.04;25.58;95563.91;5028052;28;20419;-81
2022/03/23 11:46:29;;;;;;;10.30;4.00;;;;;;;15.47;25.86;95570.59;5053054;28;20820;-82
2022/03/23 11:49:28;;;;;;;4.63;4.00;;;;;;;15.73;25.79;95562.72;5047774;28;20282;-81
2022/03/23 11:52:19;;;;;;;4.23;3.80;;;;;;;16.00;25.71;95554.78;5040885;28;20490;-81
2022/03/23 11:58:23;;;;;;;6.73;3.30;;;;;;;16.37;25.57;95542.72;5031615;28;20943;-81
2022/03/23 12:00:55;;;;;;;4.07;3.80;;;;;;;15.73;26.19;95538.97;5054390;28;20446;-81
2022/03/23 12:03:57;;;;;;;6.90;4.37;;;;;;;16.45;25.36;95532.91;5058536;28;20433;-81
2022/03/23 12:06:41;;;;;;;7.00;4.07;;;;;;;16.30;25.72;95535.84;5051638;28;20411;-81